< < Back
Terminal Aerodrome Forecast


Current Version              Previous Versions:   1  2  3  4  5  6  7  8  9  

Terminal Aerodrome Forecast

487
FTUS42 KILM 181100
TAFILM
TAF
KILM 181121Z 1812/1912 02012KT P6SM SCT010 BKN060
      TEMPO 1816/1820 BKN025
     FM182300 04013KT 6SM -RA BKN030 OVC050
     FM190200 04012KT 4SM RA BR BKN015 OVC030
     FM190400 04011KT 2SM RA BR BKN006 OVC025=



Latest METAR

342
SAUS70 KWBC 181500 RRL
MTRILM
METAR KILM 181453Z 02008KT 10SM OVC030 15/06 A3035 RMK AO2 SLP276
T01500061 57003


USA.gov is the U.S. government's official web portal to all federal, state and local government web resources and services.